createdAt,value
2023-04-21T00:01:43.980Z,0.40
2023-04-21T00:04:13.921Z,0.60
2023-04-21T00:06:41.620Z,1.75
2023-04-21T00:09:09.782Z,2.63
2023-04-21T00:11:36.909Z,1.08
2023-04-21T00:14:04.147Z,0.88
2023-04-21T00:16:31.720Z,0.47
2023-04-21T00:18:59.290Z,1.27
2023-04-21T00:21:26.823Z,1.77
2023-04-21T00:23:53.998Z,1.00
2023-04-21T00:26:21.226Z,1.17
2023-04-21T00:28:48.391Z,1.05
2023-04-21T00:31:15.582Z,1.40
2023-04-21T00:33:42.803Z,1.13
2023-04-21T00:36:09.973Z,1.60
2023-04-21T00:38:37.197Z,1.40
2023-04-21T00:41:04.388Z,1.90
2023-04-21T00:43:31.597Z,2.22
2023-04-21T00:45:58.847Z,1.45
2023-04-21T00:48:26.003Z,1.15
2023-04-21T00:50:53.187Z,1.55
2023-04-21T00:53:21.075Z,1.83
2023-04-21T00:55:48.250Z,2.42
2023-04-21T00:58:15.477Z,1.20
2023-04-21T01:00:44.680Z,1.83
2023-04-21T01:03:11.962Z,1.70
2023-04-21T01:05:39.262Z,2.10
2023-04-21T01:08:07.177Z,2.03
2023-04-21T01:10:34.236Z,1.00
2023-04-21T01:13:01.334Z,1.83
2023-04-21T01:15:31.097Z,1.55
2023-04-21T01:17:58.338Z,1.13
2023-04-21T01:20:25.581Z,1.33
2023-04-21T01:22:52.846Z,1.75
2023-04-21T01:25:22.768Z,1.70
2023-04-21T01:27:49.953Z,1.40
2023-04-21T01:30:17.192Z,1.15
2023-04-21T01:32:44.383Z,1.63
2023-04-21T01:35:11.506Z,0.98
2023-04-21T01:37:38.658Z,1.13
2023-04-21T01:40:07.323Z,1.13
2023-04-21T01:42:36.064Z,1.42
2023-04-21T01:45:03.421Z,1.58
2023-04-21T01:47:30.599Z,1.85
2023-04-21T01:49:57.720Z,1.30
2023-04-21T01:52:25.082Z,1.83
2023-04-21T01:54:52.242Z,1.40
2023-04-21T01:57:19.823Z,1.25
2023-04-21T01:59:47.177Z,1.42
2023-04-21T02:02:14.346Z,1.33
2023-04-21T02:04:41.744Z,2.35
2023-04-21T02:07:09.083Z,0.80
2023-04-21T02:09:36.578Z,1.88
2023-04-21T02:12:03.793Z,2.42
2023-04-21T02:14:30.955Z,1.73
2023-04-21T02:16:58.021Z,1.00
2023-04-21T02:19:25.450Z,1.80
2023-04-21T02:21:52.680Z,0.80
2023-04-21T02:24:19.813Z,1.90
2023-04-21T02:26:46.888Z,1.23
2023-04-21T02:29:14.434Z,1.08
2023-04-21T02:31:56.600Z,1.67
2023-04-21T02:34:26.346Z,0.82
2023-04-21T02:36:53.477Z,1.27
2023-04-21T02:39:21.058Z,1.10
2023-04-21T02:41:48.498Z,1.00
2023-04-21T02:44:15.612Z,1.58
2023-04-21T02:46:42.986Z,1.00
2023-04-21T02:49:10.951Z,1.65
2023-04-21T02:51:38.265Z,1.88
2023-04-21T02:54:06.015Z,1.77
2023-04-21T02:56:34.803Z,3.15
2023-04-21T02:59:01.913Z,3.88
2023-04-21T03:01:29.060Z,1.73
2023-04-21T03:03:56.514Z,0.90
2023-04-21T03:06:23.797Z,1.20
2023-04-21T03:08:52.160Z,0.70
2023-04-21T03:11:19.382Z,1.13
2023-04-21T03:13:46.490Z,1.48
2023-04-21T03:16:13.673Z,2.55
2023-04-21T03:18:40.845Z,1.63
2023-04-21T03:21:07.908Z,2.22
2023-04-21T03:23:35.017Z,2.15
2023-04-21T03:26:02.172Z,2.42
2023-04-21T03:28:29.448Z,1.45
2023-04-21T03:30:56.526Z,1.02
2023-04-21T03:33:23.677Z,1.02
2023-04-21T03:35:50.855Z,1.30
2023-04-21T03:38:17.956Z,1.42
2023-04-21T03:40:45.244Z,2.08
2023-04-21T03:43:12.356Z,3.03
2023-04-21T03:45:39.428Z,1.40
2023-04-21T03:48:06.734Z,1.85
2023-04-21T03:50:33.873Z,1.67
2023-04-21T03:53:01.365Z,1.00
2023-04-21T03:55:28.501Z,1.20
2023-04-21T03:57:55.603Z,1.00
2023-04-21T04:00:22.845Z,1.65
2023-04-21T04:02:50.233Z,2.10
2023-04-21T04:05:17.508Z,1.20
2023-04-21T04:07:44.719Z,1.30
2023-04-21T04:10:12.085Z,1.58
2023-04-21T04:12:39.228Z,2.58
2023-04-21T04:15:07.816Z,1.05
2023-04-21T04:17:35.045Z,1.40
2023-04-21T04:20:04.579Z,2.38
2023-04-21T04:22:31.770Z,1.75
2023-04-21T04:24:59.849Z,2.17
2023-04-21T04:27:28.527Z,1.90
2023-04-21T04:29:55.608Z,1.77
2023-04-21T04:32:22.874Z,1.63
2023-04-21T04:34:52.383Z,2.53
2023-04-21T04:37:21.796Z,2.28
2023-04-21T04:39:50.470Z,2.25
2023-04-21T04:42:17.588Z,2.08
2023-04-21T04:44:44.893Z,1.98
2023-04-21T04:47:12.672Z,2.85
2023-04-21T04:49:39.756Z,2.13
2023-04-21T04:52:07.073Z,3.05
2023-04-21T04:54:34.419Z,1.20
2023-04-21T04:57:02.398Z,2.38
2023-04-21T04:59:30.830Z,2.17
2023-04-21T05:01:58.199Z,1.35
2023-04-21T05:04:25.582Z,1.92
2023-04-21T05:06:53.101Z,2.58
2023-04-21T05:09:20.943Z,4.05
2023-04-21T05:11:48.291Z,1.05
2023-04-21T05:14:15.511Z,2.78
2023-04-21T05:16:44.176Z,2.15
2023-04-21T05:19:11.306Z,3.10
2023-04-21T05:21:38.426Z,2.15
2023-04-21T05:24:05.639Z,3.25
2023-04-21T05:26:32.751Z,2.25
2023-04-21T05:28:59.854Z,5.65
2023-04-21T05:31:27.240Z,2.90
2023-04-21T05:33:54.436Z,1.42
2023-04-21T05:36:21.580Z,3.20
2023-04-21T05:38:48.924Z,3.28
2023-04-21T05:41:16.209Z,2.28
2023-04-21T05:43:43.334Z,2.30
2023-04-21T05:46:13.915Z,1.92
2023-04-21T05:48:41.670Z,3.30
2023-04-21T05:51:12.563Z,4.43
2023-04-21T05:53:40.080Z,5.75
2023-04-21T05:56:09.000Z,3.13
2023-04-21T05:58:36.337Z,3.95
2023-04-21T06:01:03.778Z,4.05
2023-04-21T06:03:34.410Z,3.95
2023-04-21T06:06:02.220Z,3.53
2023-04-21T06:08:29.812Z,2.92
2023-04-21T06:10:56.962Z,3.38
2023-04-21T06:13:24.100Z,5.28
2023-04-21T06:15:51.270Z,2.95
2023-04-21T06:18:18.451Z,1.88
2023-04-21T06:20:55.384Z,3.78
2023-04-21T06:23:22.547Z,4.22
2023-04-21T06:26:10.055Z,2.00
2023-04-21T06:28:39.124Z,4.53
2023-04-21T06:31:08.979Z,2.42
2023-04-21T06:33:36.525Z,3.50
2023-04-21T06:36:03.750Z,4.95
2023-04-21T06:38:31.020Z,4.82
2023-04-21T06:40:58.285Z,2.22
2023-04-21T06:43:25.465Z,4.93
2023-04-21T06:45:52.524Z,3.63
2023-04-21T06:48:19.740Z,4.55
2023-04-21T06:50:46.886Z,2.38
2023-04-21T06:53:14.062Z,3.20
2023-04-21T06:55:41.256Z,4.00
2023-04-21T06:58:08.340Z,3.78
2023-04-21T07:00:35.514Z,3.80
2023-04-21T07:03:03.032Z,2.50
2023-04-21T07:05:30.335Z,2.95
2023-04-21T07:07:59.871Z,0.80
2023-04-21T07:10:27.780Z,3.17
2023-04-21T07:12:55.074Z,4.10
2023-04-21T07:15:22.433Z,3.10
2023-04-21T07:17:49.593Z,1.88
2023-04-21T07:20:18.555Z,4.18
2023-04-21T07:22:45.689Z,3.53
2023-04-21T07:25:12.952Z,3.25
2023-04-21T07:27:40.309Z,1.98
2023-04-21T07:30:08.111Z,1.85
2023-04-21T07:32:36.653Z,2.55
2023-04-21T07:35:03.893Z,2.28
2023-04-21T07:37:31.291Z,3.20
2023-04-21T07:39:58.560Z,2.60
2023-04-21T07:42:26.911Z,2.92
2023-04-21T07:44:55.913Z,3.38
2023-04-21T07:47:23.440Z,1.83
2023-04-21T07:49:50.829Z,4.75
2023-04-21T07:52:17.969Z,2.83
2023-04-21T07:54:45.445Z,1.77
2023-04-21T07:57:12.598Z,1.85
2023-04-21T07:59:39.735Z,2.17
2023-04-21T08:02:07.135Z,3.17
2023-04-21T08:04:34.560Z,1.70
2023-04-21T08:07:02.072Z,1.55
2023-04-21T08:09:29.602Z,2.25
2023-04-21T08:11:58.022Z,1.23
2023-04-21T08:14:26.927Z,2.67
2023-04-21T08:16:56.585Z,1.48
2023-04-21T08:19:24.373Z,1.40
2023-04-21T08:21:51.589Z,2.47
2023-04-21T08:24:19.116Z,2.10
2023-04-21T08:26:46.475Z,1.00
2023-04-21T08:29:14.110Z,2.60
2023-04-21T08:31:41.551Z,2.05
2023-04-21T08:34:08.767Z,1.23
2023-04-21T08:36:36.045Z,1.38
2023-04-21T08:39:03.514Z,2.17
2023-04-21T08:41:30.764Z,1.25
2023-04-21T08:43:57.929Z,2.00
2023-04-21T08:46:25.441Z,0.93
2023-04-21T08:48:54.955Z,2.63
2023-04-21T08:51:23.775Z,2.40
2023-04-21T08:53:51.933Z,0.85
2023-04-21T08:56:19.180Z,1.85
2023-04-21T08:58:46.289Z,1.08
2023-04-21T09:01:13.635Z,2.08
2023-04-21T09:03:40.970Z,0.68
2023-04-21T09:06:09.759Z,1.50
2023-04-21T09:08:43.296Z,1.67
2023-04-21T09:11:14.113Z,1.08
2023-04-21T09:13:43.199Z,0.90
2023-04-21T09:16:20.944Z,1.85
2023-04-21T09:18:48.373Z,1.10
2023-04-21T09:21:16.551Z,1.05
2023-04-21T09:23:45.054Z,1.10
2023-04-21T09:26:12.617Z,1.05
2023-04-21T09:28:46.629Z,1.33
2023-04-21T09:31:15.727Z,1.25
2023-04-21T09:36:21.084Z,0.63
2023-04-21T09:38:50.209Z,1.05
2023-04-21T09:41:18.873Z,1.10
2023-04-21T09:43:46.187Z,1.33
2023-04-21T09:46:13.539Z,0.52
2023-04-21T09:48:44.110Z,0.75
2023-04-21T09:51:32.359Z,0.82
2023-04-21T09:54:15.693Z,1.85
2023-04-21T09:56:50.858Z,1.17
2023-04-21T09:59:25.860Z,1.08
2023-04-21T10:01:54.663Z,1.63
2023-04-21T10:04:23.902Z,1.20
2023-04-21T10:06:52.122Z,0.52
2023-04-21T10:09:21.747Z,0.30
2023-04-21T10:11:49.152Z,0.75
2023-04-21T10:14:16.460Z,1.17
2023-04-21T10:16:43.755Z,0.90
2023-04-21T10:19:29.395Z,0.85
2023-04-21T10:21:57.710Z,1.40
2023-04-21T10:24:30.005Z,0.28
2023-04-21T10:27:00.012Z,0.73
2023-04-21T10:29:40.137Z,2.17
2023-04-21T10:32:11.458Z,1.27
2023-04-21T10:34:39.441Z,1.00
2023-04-21T10:37:06.569Z,0.55
2023-04-21T10:39:38.151Z,0.32
2023-04-21T10:42:14.166Z,0.30
2023-04-21T10:44:44.353Z,0.73
2023-04-21T10:47:11.840Z,1.02
2023-04-21T10:49:39.656Z,1.00
2023-04-21T10:52:07.942Z,0.50
2023-04-21T10:54:42.113Z,0.52
2023-04-21T10:57:11.371Z,0.73
2023-04-21T10:59:39.100Z,0.55
2023-04-21T11:02:07.866Z,0.93
2023-04-21T11:04:35.675Z,1.30
2023-04-21T11:07:11.020Z,1.60
2023-04-21T11:09:39.005Z,0.80
2023-04-21T11:12:10.350Z,0.80
2023-04-21T11:14:38.091Z,1.00
2023-04-21T11:17:06.203Z,0.30
2023-04-21T11:19:33.478Z,0.68
2023-04-21T11:22:00.660Z,0.40
2023-04-21T11:24:27.873Z,1.60
2023-04-21T11:26:54.972Z,1.23
2023-04-21T11:29:22.030Z,1.38
2023-04-21T11:31:50.257Z,1.42
2023-04-21T11:34:20.900Z,0.82
2023-04-21T11:36:48.905Z,0.20
2023-04-21T11:39:20.201Z,1.08
2023-04-21T11:41:49.447Z,0.50
2023-04-21T11:44:36.799Z,0.98
2023-04-21T11:47:17.155Z,1.33
2023-04-21T11:49:48.337Z,0.68
2023-04-21T11:52:22.492Z,0.60
2023-04-21T11:54:56.213Z,0.35
2023-04-21T11:57:24.379Z,1.17
2023-04-21T11:59:51.739Z,1.05
2023-04-21T12:02:23.068Z,0.63
2023-04-21T12:05:02.968Z,0.95
2023-04-21T12:07:31.634Z,0.95
2023-04-21T12:09:59.271Z,0.68
2023-04-21T12:12:26.769Z,1.08
2023-04-21T12:14:54.217Z,0.75
2023-04-21T12:17:21.445Z,0.30
2023-04-21T12:19:48.658Z,0.90
2023-04-21T12:22:18.348Z,1.05
2023-04-21T12:24:45.760Z,1.08
2023-04-21T12:27:13.359Z,0.22
2023-04-21T12:29:41.252Z,0.80
2023-04-21T12:32:09.435Z,0.57
2023-04-21T12:34:36.763Z,0.20
2023-04-21T12:37:04.381Z,0.57
2023-04-21T12:39:31.920Z,1.00
2023-04-21T12:41:59.619Z,0.73
2023-04-21T12:44:27.081Z,1.02
2023-04-21T12:46:54.444Z,0.95
2023-04-21T12:49:21.710Z,0.88
2023-04-21T12:51:49.467Z,0.63
2023-04-21T12:54:16.700Z,1.10
2023-04-21T12:56:44.118Z,0.85
2023-04-21T12:59:11.719Z,0.55
2023-04-21T13:01:39.626Z,1.00
2023-04-21T13:04:06.960Z,0.77
2023-04-21T13:06:34.401Z,0.77
2023-04-21T13:09:01.863Z,1.02
2023-04-21T13:11:28.978Z,0.55
2023-04-21T13:13:56.156Z,0.93
2023-04-21T13:16:23.241Z,0.68
2023-04-21T13:18:50.532Z,0.85
2023-04-21T13:21:17.732Z,0.77
2023-04-21T13:23:44.894Z,0.60
2023-04-21T13:26:12.133Z,1.88
2023-04-21T13:28:39.381Z,0.80
2023-04-21T13:31:07.169Z,0.95
2023-04-21T13:33:37.959Z,1.02
2023-04-21T13:36:05.386Z,1.23
2023-04-21T13:38:32.655Z,0.55
2023-04-21T13:40:59.940Z,1.83
2023-04-21T13:43:27.160Z,0.60
2023-04-21T13:45:54.284Z,0.60
2023-04-21T13:48:23.517Z,0.93
2023-04-21T13:50:50.777Z,0.85
2023-04-21T13:53:19.323Z,1.70
2023-04-21T13:55:48.519Z,1.10
2023-04-21T13:58:16.889Z,1.60
2023-04-21T14:00:44.060Z,0.35
2023-04-21T14:03:11.828Z,0.32
2023-04-21T14:05:39.501Z,1.08
2023-04-21T14:08:06.902Z,1.75
2023-04-21T14:10:34.485Z,0.85
2023-04-21T14:13:01.602Z,0.90
2023-04-21T14:15:28.748Z,1.05
2023-04-21T14:17:56.562Z,0.45
2023-04-21T14:20:23.905Z,0.95
2023-04-21T14:22:51.063Z,1.30
2023-04-21T14:25:18.302Z,0.68
2023-04-21T14:27:45.534Z,0.50
2023-04-21T14:30:13.468Z,0.70
2023-04-21T14:32:45.338Z,1.33
2023-04-21T14:35:13.029Z,0.77
2023-04-21T14:37:40.386Z,0.70
2023-04-21T14:40:10.799Z,0.50
2023-04-21T14:42:38.060Z,0.35
2023-04-21T14:45:05.734Z,1.02
2023-04-21T14:47:33.266Z,0.22
2023-04-21T14:50:00.673Z,1.05
2023-04-21T14:52:28.104Z,0.63
2023-04-21T14:54:55.348Z,2.08
2023-04-21T14:57:22.708Z,0.40
2023-04-21T14:59:51.152Z,0.22
2023-04-21T15:02:18.613Z,0.75
2023-04-21T15:04:46.102Z,1.05
2023-04-21T15:07:13.367Z,0.75
2023-04-21T15:09:43.056Z,0.65
2023-04-21T15:12:10.667Z,0.68
2023-04-21T15:14:37.802Z,0.75
2023-04-21T15:17:05.117Z,0.10
2023-04-21T15:19:32.713Z,0.30
2023-04-21T15:21:59.985Z,0.45
2023-04-21T15:24:29.462Z,0.50
2023-04-21T15:26:57.356Z,1.17
2023-04-21T15:29:24.569Z,0.45
2023-04-21T15:31:51.748Z,0.82
2023-04-21T15:34:18.872Z,0.40
2023-04-21T15:36:45.980Z,0.55
2023-04-21T15:39:14.207Z,0.85
2023-04-21T15:41:41.717Z,1.25
2023-04-21T15:44:08.930Z,0.85
2023-04-21T15:46:36.215Z,0.60
2023-04-21T15:49:03.633Z,0.85
2023-04-21T15:51:34.815Z,0.52
2023-04-21T15:54:02.076Z,0.43
2023-04-21T15:56:30.301Z,0.20
2023-04-21T15:58:57.405Z,1.08
2023-04-21T16:01:25.040Z,0.40
2023-04-21T16:03:55.067Z,1.55
2023-04-21T16:06:24.105Z,0.82
2023-04-21T16:08:51.351Z,0.43
2023-04-21T16:11:18.531Z,0.80
2023-04-21T16:13:45.928Z,0.55
2023-04-21T16:16:13.266Z,0.38
2023-04-21T16:18:40.618Z,0.98
2023-04-21T16:21:07.832Z,1.02
2023-04-21T16:23:35.007Z,0.77
2023-04-21T16:26:02.255Z,1.15
2023-04-21T16:28:29.527Z,0.20
2023-04-21T16:30:56.742Z,1.08
2023-04-21T16:33:23.896Z,0.70
2023-04-21T16:35:55.406Z,0.57
2023-04-21T16:38:24.667Z,2.08
2023-04-21T16:40:51.924Z,0.63
2023-04-21T16:43:19.133Z,0.30
2023-04-21T16:45:46.573Z,0.60
2023-04-21T16:48:13.969Z,0.73
2023-04-21T16:50:41.959Z,0.88
2023-04-21T16:53:09.191Z,0.88
2023-04-21T16:55:36.390Z,1.30
2023-04-21T16:58:03.655Z,0.85
2023-04-21T17:00:30.819Z,0.30
2023-04-21T17:02:58.095Z,0.32
2023-04-21T17:05:25.695Z,0.68
2023-04-21T17:07:52.902Z,0.75
2023-04-21T17:10:20.092Z,0.15
2023-04-21T17:12:47.277Z,1.08
2023-04-21T17:15:14.466Z,0.22
2023-04-21T17:17:43.053Z,0.85
2023-04-21T17:20:11.398Z,1.35
2023-04-21T17:22:39.132Z,0.57
2023-04-21T17:25:06.717Z,0.82
2023-04-21T17:27:37.551Z,0.40
2023-04-21T17:30:05.366Z,0.45
2023-04-21T17:32:34.042Z,0.95
2023-04-21T17:35:01.623Z,0.15
2023-04-21T17:37:30.361Z,0.52
2023-04-21T17:39:59.274Z,0.32
2023-04-21T17:42:29.271Z,0.40
2023-04-21T17:44:56.471Z,0.57
2023-04-21T17:47:23.656Z,0.50
2023-04-21T17:49:50.943Z,0.60
2023-04-21T17:52:18.194Z,0.70
2023-04-21T17:54:46.075Z,0.15
2023-04-21T17:57:13.278Z,0.40
2023-04-21T17:59:40.494Z,0.57
2023-04-21T18:02:08.006Z,0.85
2023-04-21T18:04:35.493Z,0.68
2023-04-21T18:07:03.509Z,0.73
2023-04-21T18:09:30.718Z,0.50
2023-04-21T18:11:58.318Z,1.00
2023-04-21T18:14:26.183Z,0.22
2023-04-21T18:16:53.794Z,1.15
2023-04-21T18:19:20.906Z,0.28
2023-04-21T18:21:48.105Z,0.60
2023-04-21T18:24:15.868Z,0.70
2023-04-21T18:26:43.368Z,0.40
2023-04-21T18:29:10.768Z,0.52
2023-04-21T18:31:38.086Z,0.17
2023-04-21T18:34:06.055Z,0.40
2023-04-21T18:36:34.067Z,0.47
2023-04-21T18:39:01.960Z,0.70
2023-04-21T18:41:29.147Z,0.55
2023-04-21T18:43:56.402Z,0.22
2023-04-21T18:46:23.595Z,0.30
2023-04-21T18:48:50.788Z,1.02
2023-04-21T18:51:18.143Z,0.30
2023-04-21T18:53:46.295Z,1.27
2023-04-21T18:56:13.480Z,0.63
2023-04-21T18:58:40.731Z,1.10
2023-04-21T19:01:08.029Z,1.15
2023-04-21T19:03:35.463Z,0.90
2023-04-21T19:06:02.945Z,0.50
2023-04-21T19:08:41.433Z,1.20
2023-04-21T19:11:10.325Z,0.47
2023-04-21T19:13:37.493Z,0.95
2023-04-21T19:16:05.297Z,1.10
2023-04-21T19:18:32.704Z,0.98
2023-04-21T19:20:59.832Z,0.65
2023-04-21T19:23:26.959Z,0.95
2023-04-21T19:25:56.282Z,0.30
2023-04-21T19:28:23.575Z,1.17
2023-04-21T19:30:50.775Z,1.10
2023-04-21T19:33:17.971Z,1.15
2023-04-21T19:35:45.714Z,0.77
2023-04-21T19:38:12.888Z,0.20
2023-04-21T19:40:42.240Z,0.50
2023-04-21T19:43:09.381Z,0.50
2023-04-21T19:45:37.577Z,6.38
2023-04-21T19:48:07.065Z,0.50
2023-04-21T19:50:37.746Z,1.33
2023-04-21T19:53:04.884Z,0.75
2023-04-21T19:55:32.336Z,1.38
2023-04-21T19:57:59.398Z,1.05
2023-04-21T20:00:26.519Z,0.20
2023-04-21T20:02:53.837Z,0.55
2023-04-21T20:05:21.301Z,0.45
2023-04-21T20:07:48.836Z,0.20
2023-04-21T20:10:16.017Z,0.40
2023-04-21T20:12:43.120Z,0.95
2023-04-21T20:15:11.970Z,0.40
2023-04-21T20:17:39.210Z,0.70
2023-04-21T20:20:07.105Z,1.08
2023-04-21T20:22:34.244Z,0.52
2023-04-21T20:25:01.482Z,0.50
2023-04-21T20:27:28.675Z,0.73
2023-04-21T20:29:56.152Z,0.60
2023-04-21T20:32:23.405Z,0.57
2023-04-21T20:34:51.774Z,0.40
2023-04-21T20:37:19.431Z,0.65
2023-04-21T20:39:49.680Z,0.68
2023-04-21T20:42:18.842Z,0.63
2023-04-21T20:44:46.080Z,0.52
2023-04-21T20:47:13.429Z,0.75
2023-04-21T20:49:42.596Z,0.20
2023-04-21T20:52:09.948Z,0.70
2023-04-21T20:54:37.565Z,0.70
2023-04-21T20:57:07.272Z,0.30
2023-04-21T20:59:34.398Z,0.55
2023-04-21T21:02:01.707Z,2.17
2023-04-21T21:04:28.891Z,0.82
2023-04-21T21:06:56.085Z,1.15
2023-04-21T21:09:23.320Z,1.02
2023-04-21T21:11:50.395Z,0.35
2023-04-21T21:14:17.650Z,0.90
2023-04-21T21:16:45.036Z,0.50
2023-04-21T21:19:12.645Z,0.50
2023-04-21T21:21:39.799Z,0.35
2023-04-21T21:24:07.123Z,0.30
2023-04-21T21:26:34.627Z,0.10
2023-04-21T21:29:01.930Z,0.40
2023-04-21T21:31:29.594Z,0.35
2023-04-21T21:33:58.149Z,0.57
2023-04-21T21:36:25.393Z,1.27
2023-04-21T21:38:52.628Z,0.73
2023-04-21T21:41:19.842Z,0.45
2023-04-21T21:43:47.072Z,0.73
2023-04-21T21:46:14.439Z,0.55
2023-04-21T21:48:42.587Z,0.35
2023-04-21T21:51:09.731Z,0.65
2023-04-21T21:53:36.991Z,0.52
2023-04-21T21:56:04.150Z,0.82
2023-04-21T21:58:31.382Z,0.80
2023-04-21T22:00:59.435Z,0.95
2023-04-21T22:03:27.309Z,0.82
2023-04-21T22:05:54.603Z,0.85
2023-04-21T22:08:22.075Z,0.93
2023-04-21T22:10:49.325Z,1.08
2023-04-21T22:13:16.430Z,1.08
2023-04-21T22:15:43.646Z,0.63
2023-04-21T22:18:11.201Z,0.35
2023-04-21T22:20:38.650Z,1.02
2023-04-21T22:23:05.794Z,0.88
2023-04-21T22:25:32.915Z,0.70
2023-04-21T22:28:00.078Z,1.02
2023-04-21T22:30:27.254Z,0.85
2023-04-21T22:32:54.465Z,0.63
2023-04-21T22:35:21.597Z,1.13
2023-04-21T22:37:48.877Z,0.20
2023-04-21T22:40:16.133Z,0.55
2023-04-21T22:42:43.288Z,0.40
2023-04-21T22:45:10.621Z,0.68
2023-04-21T22:47:38.125Z,0.93
2023-04-21T22:50:05.500Z,0.68
2023-04-21T22:52:33.031Z,1.05
2023-04-21T22:55:00.203Z,1.17
2023-04-21T22:57:27.602Z,1.35
2023-04-21T22:59:54.783Z,0.80
2023-04-21T23:02:22.093Z,1.15
2023-04-21T23:04:49.271Z,1.25
2023-04-21T23:07:16.523Z,1.08
2023-04-21T23:09:43.578Z,1.13
2023-04-21T23:12:10.932Z,0.88
2023-04-21T23:14:38.236Z,1.05
2023-04-21T23:17:05.445Z,0.32
2023-04-21T23:19:32.594Z,0.88
2023-04-21T23:21:59.730Z,0.95
2023-04-21T23:24:27.047Z,1.17
2023-04-21T23:26:54.240Z,0.85
2023-04-21T23:29:21.475Z,0.88
2023-04-21T23:31:48.942Z,1.20
2023-04-21T23:34:16.141Z,0.65
2023-04-21T23:36:43.362Z,0.28
2023-04-21T23:39:11.459Z,0.17
2023-04-21T23:41:38.650Z,1.00
2023-04-21T23:44:06.251Z,0.68
2023-04-21T23:46:33.525Z,0.75
2023-04-21T23:49:00.678Z,0.50
2023-04-21T23:51:28.282Z,0.40
2023-04-21T23:53:55.834Z,0.35
2023-04-21T23:56:23.878Z,1.50
2023-04-21T23:58:51.762Z,0.57
